Terminal Aerodrome Forecast
Issued by NWS

Home | Current Version | Previous Version | Text Only | Print | Product List | Glossary Off
Versions: 1 2 3 4 5 6 7 8 9 10 11 12 13 14 15 16 17 18 19 20 21

855
FTUS43 KFGF 221726 AAC
TAFBJI
TAF AMD
KBJI 221726Z 2217/2318 13010KT P6SM SCT015
      TEMPO 2218/2221 BKN015
     FM222100 15009KT P6SM BKN015
     FM230200 17009KT P6SM VCTS BKN040CB
     FM230800 28010KT P6SM BKN008=

USA.gov is the U.S. government's official web portal to all federal, state and local government web resources and services.